Time;durP1;ratioP1;P1;durP2;ratioP2;P2;SDS_P1;SDS_P2;PMS_P1;PMS_P2;Temp;Humidity;BMP_temperature;BMP_pressure;BME280_temperature;BME280_humidity;BME280_pressure;Samples;Min_cycle;Max_cycle;Signal;HPM_P1;HPM_P2
2023/05/05 00:01:19;;;;;;;1.27;1.27;;;19.70;68.50;;;;;;5047952;28;43931;-67
2023/05/05 00:03:47;;;;;;;1.13;1.13;;;19.70;68.50;;;;;;5039344;28;44876;-69
2023/05/05 00:06:15;;;;;;;1.17;1.17;;;19.70;68.50;;;;;;5047954;28;43491;-68
2023/05/05 00:08:45;;;;;;;1.30;1.30;;;19.80;68.40;;;;;;5043798;28;43964;-68
2023/05/05 00:11:13;;;;;;;1.20;1.20;;;19.90;68.00;;;;;;5048897;28;43914;-69
2023/05/05 00:13:40;;;;;;;1.20;1.20;;;19.90;67.80;;;;;;5048451;28;43491;-69
2023/05/05 00:16:08;;;;;;;1.30;1.30;;;19.90;67.80;;;;;;5045987;28;43474;-68
2023/05/05 00:18:36;;;;;;;1.23;1.23;;;19.90;68.00;;;;;;5048172;28;43473;-68
2023/05/05 00:21:04;;;;;;;1.20;1.20;;;19.90;68.00;;;;;;5048545;28;43934;-68
2023/05/05 00:23:32;;;;;;;1.20;1.20;;;19.90;68.00;;;;;;5045608;28;44066;-69
2023/05/05 00:26:01;;;;;;;1.20;1.20;;;19.80;68.10;;;;;;5048881;28;43406;-69
2023/05/05 00:28:29;;;;;;;1.30;1.30;;;19.80;68.20;;;;;;5048716;28;43909;-70
2023/05/05 00:30:57;;;;;;;1.30;1.30;;;19.80;68.20;;;;;;5040711;28;43795;-67
2023/05/05 00:33:25;;;;;;;1.37;1.37;;;19.80;68.20;;;;;;5045539;28;43403;-67
2023/05/05 00:35:53;;;;;;;1.30;1.30;;;19.80;68.30;;;;;;5046241;28;43433;-67
2023/05/05 00:38:22;;;;;;;1.40;1.40;;;19.80;68.40;;;;;;5042982;28;43863;-69
2023/05/05 00:40:50;;;;;;;1.40;1.40;;;19.70;68.40;;;;;;5045394;28;43841;-69
2023/05/05 00:43:19;;;;;;;1.30;1.30;;;19.70;68.50;;;;;;5047635;28;43362;-68
2023/05/05 00:45:47;;;;;;;1.23;1.23;;;19.70;68.50;;;;;;5045551;28;43423;-68
2023/05/05 00:48:15;;;;;;;1.30;1.30;;;19.80;68.40;;;;;;5048171;28;43423;-68
2023/05/05 00:50:44;;;;;;;1.20;1.20;;;19.90;68.20;;;;;;5046784;28;43886;-68
2023/05/05 00:53:12;;;;;;;1.20;1.20;;;20.00;67.60;;;;;;5043970;28;43757;-68
2023/05/05 00:55:40;;;;;;;1.20;1.20;;;20.10;67.40;;;;;;5047874;28;43427;-69
2023/05/05 00:58:08;;;;;;;1.20;1.20;;;20.10;67.30;;;;;;5043839;28;43475;-69
2023/05/05 01:00:38;;;;;;;1.30;1.30;;;20.00;67.50;;;;;;5045353;28;43793;-69
2023/05/05 01:03:06;;;;;;;1.30;1.30;;;20.00;67.80;;;;;;5071007;22;43482;-68
2023/05/05 01:05:37;;;;;;;1.17;1.17;;;19.90;67.90;;;;;;5031299;28;43482;-70
2023/05/05 01:08:19;;;;;;;1.30;1.30;;;19.90;68.00;;;;;;5051049;28;44103;-69
2023/05/05 01:10:51;;;;;;;1.20;1.20;;;19.80;68.10;;;;;;5049809;28;43941;-69
2023/05/05 01:13:24;;;;;;;1.20;1.20;;;19.80;68.10;;;;;;5024561;28;44602;-68
2023/05/05 01:15:58;;;;;;;1.00;1.00;;;19.80;68.20;;;;;;5021752;28;43413;-69
2023/05/05 01:18:42;;;;;;;1.30;1.30;;;19.80;68.30;;;;;;5028218;28;43975;-69
2023/05/05 01:21:13;;;;;;;1.47;1.47;;;19.80;68.30;;;;;;5045670;28;43621;-70
2023/05/05 01:24:06;;;;;;;1.20;1.20;;;19.80;68.30;;;;;;5034040;28;44782;-70
2023/05/05 01:26:59;;;;;;;1.20;1.20;;;19.80;68.50;;;;;;5031746;28;43399;-70
2023/05/05 01:29:47;;;;;;;1.30;1.30;;;19.70;68.50;;;;;;5028738;28;43393;-70
2023/05/05 01:32:18;;;;;;;1.30;1.30;;;19.70;68.50;;;;;;5049434;28;43934;-70
2023/05/05 01:34:51;;;;;;;1.10;1.10;;;19.70;68.50;;;;;;5049704;28;44013;-70
2023/05/05 01:37:20;;;;;;;1.40;1.40;;;19.80;68.20;;;;;;5039892;28;43399;-70
2023/05/05 01:39:50;;;;;;;1.30;1.30;;;19.90;68.00;;;;;;5031855;28;43894;-70
2023/05/05 01:42:18;;;;;;;1.40;1.40;;;19.90;67.80;;;;;;5049843;28;43933;-70
2023/05/05 01:44:46;;;;;;;1.40;1.40;;;19.90;67.80;;;;;;5048849;28;43500;-70
2023/05/05 01:47:18;;;;;;;1.27;1.27;;;19.90;68.00;;;;;;5030828;28;43424;-70
2023/05/05 01:49:46;;;;;;;1.43;1.43;;;19.90;68.00;;;;;;5031546;28;43569;-70
2023/05/05 01:52:14;;;;;;;1.20;1.20;;;19.90;68.00;;;;;;5030845;28;44281;-68
2023/05/05 01:54:42;;;;;;;1.20;1.20;;;19.90;68.20;;;;;;5049325;28;44485;-70
2023/05/05 01:57:11;;;;;;;1.20;1.20;;;19.80;68.10;;;;;;5049637;28;43467;-70
2023/05/05 01:59:39;;;;;;;1.20;1.20;;;19.80;68.30;;;;;;5031187;28;43468;-70
2023/05/05 02:02:10;;;;;;;1.30;1.30;;;19.80;68.20;;;;;;5045929;28;43742;-70
2023/05/05 02:04:42;;;;;;;1.30;1.30;;;19.80;68.20;;;;;;5042333;28;43437;-70
2023/05/05 02:07:10;;;;;;;1.20;1.20;;;19.80;68.30;;;;;;5019423;28;43960;-70
2023/05/05 02:09:38;;;;;;;1.10;1.10;;;19.70;69.10;;;;;;5037940;28;43412;-70
2023/05/05 02:12:07;;;;;;;1.20;1.20;;;19.70;68.40;;;;;;5017740;28;45846;-70
2023/05/05 02:14:35;;;;;;;1.33;1.33;;;19.70;68.50;;;;;;5024228;28;44486;-70
2023/05/05 02:17:05;;;;;;;1.20;1.20;;;19.80;68.50;;;;;;5012641;28;43540;-70
2023/05/05 02:19:36;;;;;;;1.37;1.37;;;19.90;68.10;;;;;;5042939;28;43437;-70
2023/05/05 02:22:06;;;;;;;1.20;1.20;;;20.00;67.60;;;;;;5029025;28;46000;-70
2023/05/05 02:24:34;;;;;;;1.13;1.13;;;20.10;67.40;;;;;;5017287;28;44438;-70
2023/05/05 02:27:06;;;;;;;1.30;1.30;;;20.10;67.40;;;;;;5022676;28;43387;-69
2023/05/05 02:29:35;;;;;;;1.20;1.20;;;20.00;67.40;;;;;;5035554;28;43408;-70
2023/05/05 02:32:05;;;;;;;1.13;1.13;;;20.00;67.70;;;;;;5026332;28;46045;-69
2023/05/05 02:34:35;;;;;;;1.20;1.20;;;19.90;67.90;;;;;;5046261;28;43381;-70
2023/05/05 02:37:07;;;;;;;1.30;1.30;;;19.80;68.00;;;;;;5015993;28;43426;-69
2023/05/05 02:39:42;;;;;;;1.17;1.17;;;19.80;68.10;;;;;;5026338;28;43383;-69
2023/05/05 02:42:17;;;;;;;1.20;1.20;;;19.80;68.10;;;;;;5015283;28;46012;-70
2023/05/05 02:44:45;;;;;;;1.27;1.27;;;19.80;68.20;;;;;;5026806;28;44494;-70
2023/05/05 02:47:13;;;;;;;1.20;1.20;;;19.80;68.20;;;;;;5011678;28;43425;-69
2023/05/05 02:49:42;;;;;;;1.17;1.17;;;19.70;68.40;;;;;;5020620;28;44781;-69
2023/05/05 02:52:12;;;;;;;1.23;1.23;;;19.70;68.30;;;;;;5032553;28;43906;-70
2023/05/05 02:54:42;;;;;;;1.20;1.20;;;19.70;68.30;;;;;;5019594;28;43424;-69
2023/05/05 02:57:16;;;;;;;1.17;1.17;;;19.70;68.40;;;;;;5024334;28;43369;-70
2023/05/05 02:59:50;;;;;;;1.40;1.40;;;19.70;68.50;;;;;;5012878;28;43440;-69
2023/05/05 03:02:27;;;;;;;1.20;1.20;;;19.70;68.60;;;;;;5026517;28;45374;-69
2023/05/05 03:05:11;;;;;;;1.30;1.30;;;19.70;68.60;;;;;;5025150;28;43389;-69
2023/05/05 03:07:50;;;;;;;1.40;1.40;;;19.80;68.30;;;;;;5022619;28;43465;-69
2023/05/05 03:10:20;;;;;;;1.37;1.37;;;20.00;67.90;;;;;;5031694;28;43417;-69
2023/05/05 03:12:53;;;;;;;1.33;1.33;;;20.10;67.40;;;;;;5025771;28;43993;-69
2023/05/05 03:15:31;;;;;;;1.30;1.30;;;20.10;67.30;;;;;;5022855;28;43385;-69
2023/05/05 03:18:00;;;;;;;1.30;1.30;;;20.10;67.30;;;;;;5026504;28;43549;-68
2023/05/05 03:20:30;;;;;;;1.20;1.20;;;20.00;67.40;;;;;;5024373;28;43558;-69
2023/05/05 03:23:04;;;;;;;1.20;1.20;;;20.00;67.60;;;;;;5027326;28;45787;-69
2023/05/05 03:25:43;;;;;;;1.20;1.20;;;19.90;68.00;;;;;;5026002;28;44751;-69
2023/05/05 03:28:18;;;;;;;1.40;1.40;;;19.90;68.10;;;;;;5022635;28;43451;-69
2023/05/05 03:30:46;;;;;;;1.20;1.20;;;19.80;68.10;;;;;;5022228;28;43614;-68
2023/05/05 03:33:16;;;;;;;1.30;1.30;;;19.80;68.10;;;;;;5033794;28;44052;-69
2023/05/05 03:35:45;;;;;;;1.30;1.30;;;19.80;68.10;;;;;;5027354;28;44776;-69
2023/05/05 03:38:15;;;;;;;1.20;1.20;;;19.80;68.40;;;;;;5027222;28;43441;-69
2023/05/05 03:40:44;;;;;;;1.20;1.20;;;19.70;68.30;;;;;;5026386;28;43622;-70
2023/05/05 03:43:18;;;;;;;1.10;1.10;;;19.80;68.40;;;;;;5032441;28;44060;-69
2023/05/05 03:45:46;;;;;;;1.10;1.10;;;19.80;68.40;;;;;;5021433;28;43453;-69
2023/05/05 03:48:15;;;;;;;1.23;1.23;;;19.70;68.30;;;;;;5028109;28;43349;-70
2023/05/05 03:50:48;;;;;;;1.20;1.20;;;19.70;68.50;;;;;;5021453;28;43435;-70
2023/05/05 03:53:19;;;;;;;1.30;1.30;;;19.70;68.60;;;;;;5027407;28;44042;-70
2023/05/05 03:55:51;;;;;;;1.07;1.07;;;19.80;68.40;;;;;;5022657;28;44683;-70
2023/05/05 03:58:19;;;;;;;1.20;1.20;;;20.00;68.10;;;;;;5043970;28;43377;-69
2023/05/05 04:00:48;;;;;;;1.30;1.30;;;20.10;67.50;;;;;;5022681;28;44106;-69
2023/05/05 04:03:17;;;;;;;1.37;1.37;;;20.20;67.30;;;;;;5014505;28;46069;-69
2023/05/05 04:05:45;;;;;;;1.13;1.13;;;20.20;67.30;;;;;;5022162;28;44530;-69
2023/05/05 04:08:14;;;;;;;1.20;1.20;;;20.10;67.30;;;;;;5025322;28;43980;-69
2023/05/05 04:10:43;;;;;;;1.30;1.30;;;20.00;67.40;;;;;;5022555;28;43877;-70
2023/05/05 04:13:11;;;;;;;1.33;1.33;;;20.00;67.60;;;;;;5026406;28;44170;-69
2023/05/05 04:15:45;;;;;;;1.20;1.20;;;19.90;67.90;;;;;;5024878;28;44909;-69
2023/05/05 04:18:14;;;;;;;1.20;1.20;;;19.90;68.00;;;;;;5030028;28;43504;-69
2023/05/05 04:20:43;;;;;;;1.13;1.13;;;19.90;68.00;;;;;;5031831;28;43617;-69
2023/05/05 04:23:11;;;;;;;1.30;1.30;;;19.90;68.10;;;;;;5022137;28;45924;-69
2023/05/05 04:25:41;;;;;;;1.20;1.20;;;19.80;68.10;;;;;;5027034;28;43430;-69
2023/05/05 04:28:11;;;;;;;1.23;1.23;;;19.80;68.40;;;;;;5031758;28;44030;-69
2023/05/05 04:30:39;;;;;;;1.30;1.30;;;19.80;68.30;;;;;;5024610;28;43587;-69
2023/05/05 04:33:07;;;;;;;1.20;1.20;;;19.80;68.20;;;;;;5029862;28;45668;-69
2023/05/05 04:35:35;;;;;;;1.30;1.30;;;19.80;68.10;;;;;;5023179;28;45204;-69
2023/05/05 04:38:03;;;;;;;1.20;1.20;;;19.80;68.10;;;;;;5013621;28;43432;-69
2023/05/05 04:40:38;;;;;;;1.27;1.27;;;19.80;68.50;;;;;;5024030;28;43501;-69
2023/05/05 04:43:07;;;;;;;1.30;1.30;;;19.80;68.60;;;;;;5012782;28;45732;-69
2023/05/05 04:45:37;;;;;;;1.20;1.20;;;19.80;68.30;;;;;;5007634;28;45020;-69
2023/05/05 04:48:06;;;;;;;1.20;1.20;;;20.00;68.00;;;;;;5016570;28;43396;-70
2023/05/05 04:50:34;;;;;;;1.30;1.30;;;20.10;67.40;;;;;;5035312;28;43396;-70
2023/05/05 04:53:02;;;;;;;1.27;1.27;;;20.20;67.20;;;;;;5016567;28;45726;-70
2023/05/05 04:55:30;;;;;;;1.10;1.10;;;20.20;67.20;;;;;;5025018;28;45034;-69
2023/05/05 04:57:57;;;;;;;1.10;1.10;;;20.10;67.00;;;;;;5033345;28;43382;-69
2023/05/05 05:00:26;;;;;;;1.20;1.20;;;20.10;67.10;;;;;;5021143;28;43485;-69
2023/05/05 05:02:55;;;;;;;1.30;1.30;;;20.00;67.30;;;;;;5019972;28;45520;-69
2023/05/05 05:05:24;;;;;;;1.30;1.30;;;20.00;68.00;;;;;;5039099;28;44004;-69
2023/05/05 05:07:52;;;;;;;1.30;1.30;;;19.90;67.90;;;;;;5037236;28;43396;-68
2023/05/05 05:10:20;;;;;;;1.40;1.40;;;19.90;68.00;;;;;;5021288;28;43524;-69
2023/05/05 05:12:50;;;;;;;1.30;1.30;;;19.90;67.90;;;;;;5027450;28;44932;-69
2023/05/05 05:15:18;;;;;;;1.27;1.27;;;19.80;67.90;;;;;;5026633;28;45052;-70
2023/05/05 05:17:46;;;;;;;1.20;1.20;;;19.80;68.20;;;;;;5023731;28;43384;-70
2023/05/05 05:20:16;;;;;;;1.10;1.10;;;19.80;68.40;;;;;;5042764;28;43542;-70
2023/05/05 05:22:43;;;;;;;1.10;1.10;;;19.80;68.10;;;;;;5026449;28;45880;-70
2023/05/05 05:25:17;;;;;;;1.40;1.40;;;19.80;68.10;;;;;;5022281;28;45117;-70
2023/05/05 05:27:47;;;;;;;1.20;1.20;;;19.80;68.10;;;;;;5026149;28;43986;-70
2023/05/05 05:30:33;;;;;;;1.13;1.13;;;19.70;68.00;;;;;;5028203;28;43432;-70
2023/05/05 05:33:06;;;;;;;1.20;1.20;;;19.70;68.50;;;;;;5027961;28;45796;-70
2023/05/05 05:35:36;;;;;;;1.20;1.20;;;19.80;68.40;;;;;;5023143;28;45013;-70
2023/05/05 05:38:04;;;;;;;1.20;1.20;;;20.00;68.20;;;;;;5024371;28;43958;-70
2023/05/05 05:40:36;;;;;;;1.27;1.27;;;20.10;67.60;;;;;;5036856;28;43370;-70
2023/05/05 05:43:04;;;;;;;1.20;1.20;;;20.20;67.40;;;;;;5028697;28;45720;-70
2023/05/05 05:45:33;;;;;;;1.40;1.40;;;20.20;67.30;;;;;;5020467;28;43514;-70
2023/05/05 05:48:03;;;;;;;1.33;1.33;;;20.10;67.20;;;;;;5012975;28;43369;-70
2023/05/05 05:50:34;;;;;;;1.20;1.20;;;20.10;67.20;;;;;;5023828;28;43501;-70
2023/05/05 05:53:03;;;;;;;1.40;1.40;;;20.00;67.30;;;;;;5019404;28;44037;-70
2023/05/05 05:55:32;;;;;;;1.30;1.30;;;19.90;67.90;;;;;;5025299;28;43969;-72
2023/05/05 05:58:01;;;;;;;1.30;1.30;;;19.90;68.00;;;;;;5023835;28;43434;-70
2023/05/05 06:00:29;;;;;;;1.30;1.30;;;19.90;68.00;;;;;;5025513;28;43420;-70
2023/05/05 06:03:04;;;;;;;1.30;1.30;;;19.80;67.80;;;;;;5023500;28;45436;-71
2023/05/05 06:05:35;;;;;;;1.30;1.30;;;19.80;67.80;;;;;;5020355;28;44872;-70
2023/05/05 06:08:06;;;;;;;1.30;1.30;;;19.80;68.20;;;;;;5026533;28;43424;-70
2023/05/05 06:10:40;;;;;;;1.37;1.37;;;19.80;68.30;;;;;;5025281;28;43400;-70
2023/05/05 06:13:12;;;;;;;1.20;1.20;;;19.80;68.30;;;;;;5029576;28;45469;-70
2023/05/05 06:15:44;;;;;;;1.20;1.20;;;19.80;68.10;;;;;;5008565;28;44758;-70
2023/05/05 06:18:13;;;;;;;1.30;1.30;;;19.80;68.10;;;;;;5022765;28;43462;-70
2023/05/05 06:20:42;;;;;;;1.40;1.40;;;19.70;68.00;;;;;;5040552;28;43416;-69
2023/05/05 06:23:12;;;;;;;1.40;1.40;;;19.70;68.50;;;;;;5024753;28;44363;-70
2023/05/05 06:25:46;;;;;;;1.30;1.30;;;19.80;68.50;;;;;;5029659;28;44927;-70
2023/05/05 06:28:15;;;;;;;1.30;1.30;;;19.90;68.20;;;;;;5025320;28;43464;-70
2023/05/05 06:30:43;;;;;;;1.30;1.30;;;20.00;67.80;;;;;;5041395;28;43889;-70
2023/05/05 06:33:11;;;;;;;1.20;1.20;;;20.10;67.50;;;;;;5041496;28;43682;-70
2023/05/05 06:35:39;;;;;;;1.30;1.30;;;20.10;67.30;;;;;;5020515;28;45187;-70
2023/05/05 06:38:06;;;;;;;3.30;1.70;;;20.10;67.20;;;;;;5029382;28;43476;-69
2023/05/05 06:40:36;;;;;;;1.20;1.20;;;20.00;67.20;;;;;;5038998;28;44247;-69
2023/05/05 06:43:04;;;;;;;1.30;1.30;;;20.00;67.50;;;;;;5025591;28;45583;-70
2023/05/05 06:45:36;;;;;;;1.40;1.40;;;19.90;67.90;;;;;;5013206;28;43937;-70
2023/05/05 06:48:04;;;;;;;1.20;1.20;;;19.90;68.20;;;;;;5023606;28;43450;-70
2023/05/05 06:50:33;;;;;;;1.43;1.40;;;19.80;68.10;;;;;;5022173;28;43428;-70
2023/05/05 06:53:01;;;;;;;1.20;1.20;;;19.80;67.90;;;;;;5011820;28;46167;-69
2023/05/05 06:55:30;;;;;;;3.47;1.97;;;19.80;67.80;;;;;;5012378;28;44783;-71
2023/05/05 06:57:59;;;;;;;4.57;2.40;;;19.80;68.00;;;;;;5037331;28;44071;-70
2023/05/05 07:00:27;;;;;;;2.30;2.10;;;19.80;68.60;;;;;;5025975;28;43759;-70
2023/05/05 07:02:55;;;;;;;4.33;2.70;;;19.80;68.50;;;;;;5027768;28;47386;-69
2023/05/05 07:05:23;;;;;;;4.93;2.50;;;19.90;68.20;;;;;;5036682;28;43402;-70
2023/05/05 07:07:52;;;;;;;2.60;2.20;;;19.90;68.00;;;;;;5044566;28;43427;-70
2023/05/05 07:10:21;;;;;;;2.93;2.60;;;20.00;68.00;;;;;;5029651;28;43964;-70
2023/05/05 07:12:49;;;;;;;3.77;2.63;;;19.90;68.00;;;;;;5031999;28;43841;-70
2023/05/05 07:15:19;;;;;;;2.80;2.53;;;19.90;68.20;;;;;;5043152;28;43366;-69
2023/05/05 07:17:56;;;;;;;2.90;2.60;;;19.90;68.90;;;;;;5032063;28;43572;-69
2023/05/05 07:20:25;;;;;;;2.40;2.20;;;19.90;68.00;;;;;;5024328;28;43422;-69
2023/05/05 07:22:53;;;;;;;2.60;2.40;;;19.80;67.90;;;;;;5038935;28;43859;-70
2023/05/05 07:25:21;;;;;;;2.60;2.50;;;19.80;68.10;;;;;;5024446;28;45882;-70
2023/05/05 07:27:49;;;;;;;2.77;2.57;;;19.80;68.40;;;;;;5037294;28;43430;-69
2023/05/05 07:30:18;;;;;;;2.93;2.60;;;19.80;68.30;;;;;;5018051;28;43548;-70
2023/05/05 07:32:47;;;;;;;2.10;2.00;;;19.80;68.20;;;;;;5019790;28;45662;-69
2023/05/05 07:35:15;;;;;;;2.60;2.50;;;19.80;68.20;;;;;;5034097;28;43908;-70
2023/05/05 07:37:43;;;;;;;2.53;2.30;;;19.70;68.20;;;;;;5020739;28;43390;-70
2023/05/05 07:40:12;;;;;;;3.00;2.50;;;19.70;68.60;;;;;;5031690;28;43474;-69
2023/05/05 07:42:40;;;;;;;3.20;2.50;;;19.80;68.60;;;;;;5038490;28;43659;-69
2023/05/05 07:45:08;;;;;;;2.20;2.10;;;19.90;68.30;;;;;;5038833;28;43571;-70
2023/05/05 07:47:37;;;;;;;2.70;2.50;;;20.00;67.90;;;;;;5020838;28;43420;-69
2023/05/05 07:50:09;;;;;;;2.67;2.47;;;20.10;67.60;;;;;;5021933;28;43432;-70
2023/05/05 07:52:37;;;;;;;2.53;2.37;;;20.10;67.50;;;;;;5038930;28;43940;-69
2023/05/05 07:55:18;;;;;;;2.97;2.27;;;20.10;67.40;;;;;;5040035;28;43916;-69
2023/05/05 07:57:48;;;;;;;2.70;2.50;;;20.00;67.50;;;;;;5023845;28;43598;-69
2023/05/05 08:00:18;;;;;;;2.13;2.03;;;19.90;67.60;;;;;;5027648;28;43479;-69
2023/05/05 08:02:47;;;;;;;2.70;2.50;;;19.90;68.10;;;;;;5039454;28;44108;-70
2023/05/05 08:05:15;;;;;;;2.57;2.37;;;19.80;68.10;;;;;;5042957;28;43827;-69
2023/05/05 08:07:43;;;;;;;2.17;2.07;;;19.80;68.10;;;;;;5031685;28;43432;-69
2023/05/05 08:10:11;;;;;;;1.93;1.83;;;19.80;68.10;;;;;;5026127;28;43975;-69
2023/05/05 08:12:39;;;;;;;2.37;2.27;;;19.80;68.10;;;;;;5037804;28;43672;-69
2023/05/05 08:15:08;;;;;;;2.20;2.10;;;19.80;68.50;;;;;;5044916;28;43956;-70
2023/05/05 08:17:47;;;;;;;2.27;2.17;;;19.70;68.50;;;;;;5045063;28;43961;-70
2023/05/05 08:20:15;;;;;;;2.50;2.30;;;19.80;68.50;;;;;;5030847;28;43440;-69
2023/05/05 08:22:45;;;;;;;2.10;2.10;;;19.80;68.40;;;;;;5040501;28;43885;-69
2023/05/05 08:25:13;;;;;;;2.33;2.13;;;19.70;68.30;;;;;;5039168;28;43438;-69
2023/05/05 08:27:42;;;;;;;2.53;2.40;;;19.70;68.70;;;;;;5022392;28;43416;-69
2023/05/05 08:30:10;;;;;;;2.47;2.30;;;19.70;68.80;;;;;;5042810;28;43426;-69
2023/05/05 08:32:39;;;;;;;2.20;2.10;;;19.80;68.50;;;;;;5043502;28;44287;-70
2023/05/05 08:35:09;;;;;;;2.50;2.30;;;19.90;68.10;;;;;;5039519;28;43412;-69
2023/05/05 08:37:37;;;;;;;2.40;2.30;;;20.10;67.70;;;;;;5037893;28;43469;-70
2023/05/05 08:40:06;;;;;;;2.10;2.00;;;20.10;67.50;;;;;;5018735;28;43504;-69
2023/05/05 08:42:34;;;;;;;1.80;1.80;;;20.10;67.50;;;;;;5022689;28;45759;-69
2023/05/05 08:45:07;;;;;;;2.20;2.10;;;20.00;67.50;;;;;;5044711;28;43452;-70
2023/05/05 08:47:36;;;;;;;2.27;2.17;;;20.00;67.70;;;;;;5027770;28;43443;-70
2023/05/05 08:50:05;;;;;;;2.10;2.00;;;19.90;67.80;;;;;;5019396;28;43456;-69
2023/05/05 08:52:38;;;;;;;2.50;2.23;;;19.90;68.20;;;;;;5036693;28;43908;-69
2023/05/05 08:55:13;;;;;;;1.73;1.73;;;19.80;68.10;;;;;;5040676;28;43340;-70
2023/05/05 08:57:48;;;;;;;1.87;1.87;;;19.80;68.10;;;;;;5044151;28;43950;-70
2023/05/05 09:00:18;;;;;;;2.30;2.20;;;19.80;68.20;;;;;;5044490;28;43502;-69
2023/05/05 09:02:46;;;;;;;2.20;2.10;;;19.70;68.20;;;;;;5033635;28;43937;-70
2023/05/05 09:05:14;;;;;;;2.27;2.17;;;19.70;68.60;;;;;;5047082;28;43423;-70
2023/05/05 09:07:44;;;;;;;2.23;2.13;;;19.70;68.50;;;;;;5010347;28;43440;-69
2023/05/05 09:10:12;;;;;;;2.13;2.03;;;19.70;68.50;;;;;;5020977;28;43579;-70
2023/05/05 09:12:41;;;;;;;1.90;1.80;;;19.70;68.40;;;;;;5043961;28;43984;-69
2023/05/05 09:15:10;;;;;;;2.40;2.30;;;19.70;68.40;;;;;;5042740;28;43473;-70
2023/05/05 09:17:38;;;;;;;2.20;2.10;;;19.70;68.70;;;;;;5029850;28;43454;-69
2023/05/05 09:20:08;;;;;;;2.23;2.13;;;19.70;68.80;;;;;;5040532;28;43623;-69
2023/05/05 09:22:37;;;;;;;2.20;2.10;;;19.80;68.60;;;;;;5038494;28;43977;-70
2023/05/05 09:25:07;;;;;;;2.27;2.17;;;19.90;68.30;;;;;;5029241;28;43875;-70
2023/05/05 09:27:36;;;;;;;1.87;1.80;;;20.00;67.90;;;;;;5023179;28;43453;-69
2023/05/05 09:30:05;;;;;;;2.30;2.20;;;20.10;67.80;;;;;;5029616;28;43545;-70
2023/05/05 09:32:43;;;;;;;2.37;2.20;;;20.10;67.70;;;;;;5033316;28;43897;-70
2023/05/05 09:35:11;;;;;;;2.40;2.20;;;20.00;67.60;;;;;;5019248;28;44676;-69
2023/05/05 09:37:39;;;;;;;2.30;2.17;;;20.00;67.70;;;;;;5038449;28;43417;-70
2023/05/05 09:40:10;;;;;;;2.30;2.20;;;19.90;68.00;;;;;;5040511;28;43925;-70
2023/05/05 09:42:38;;;;;;;2.10;2.00;;;19.90;68.30;;;;;;5013823;28;45794;-69
2023/05/05 09:45:23;;;;;;;2.23;2.13;;;19.90;68.30;;;;;;5031205;28;43546;-69
2023/05/05 09:47:51;;;;;;;2.20;2.10;;;19.80;68.20;;;;;;5029515;28;43590;-70
2023/05/05 09:50:28;;;;;;;2.30;2.20;;;19.80;68.30;;;;;;5027732;28;43448;-70
2023/05/05 09:52:58;;;;;;;1.90;1.90;;;19.80;68.50;;;;;;5012703;28;45981;-69
2023/05/05 09:55:29;;;;;;;2.33;2.23;;;19.70;68.60;;;;;;5034925;28;43896;-69
2023/05/05 09:57:59;;;;;;;2.00;1.90;;;19.80;68.70;;;;;;5025654;28;44465;-70
2023/05/05 10:00:37;;;;;;;2.30;2.20;;;19.80;68.70;;;;;;5048466;28;43431;-70
2023/05/05 10:03:08;;;;;;;2.20;2.10;;;19.70;68.50;;;;;;5025698;28;46314;-69
2023/05/05 10:05:46;;;;;;;2.30;2.07;;;19.80;68.60;;;;;;5042143;28;44003;-69
2023/05/05 10:08:17;;;;;;;2.10;2.00;;;19.70;68.80;;;;;;5037797;28;43468;-70
2023/05/05 10:10:52;;;;;;;1.80;1.70;;;19.80;68.80;;;;;;5041730;28;43417;-69
2023/05/05 10:13:21;;;;;;;1.80;1.80;;;19.80;68.50;;;;;;5041973;28;43925;-69
2023/05/05 10:15:50;;;;;;;2.27;2.17;;;20.00;68.20;;;;;;5018956;28;44786;-70
2023/05/05 10:18:20;;;;;;;2.10;2.07;;;20.10;67.90;;;;;;5023321;28;43441;-69
2023/05/05 10:20:53;;;;;;;1.90;1.80;;;20.10;68.50;;;;;;5038790;28;43450;-69
2023/05/05 10:23:22;;;;;;;2.40;2.30;;;20.10;67.80;;;;;;5038183;28;43924;-69
2023/05/05 10:25:55;;;;;;;2.13;2.03;;;20.00;67.90;;;;;;5021001;28;44992;-70
2023/05/05 10:28:28;;;;;;;2.23;2.13;;;20.00;68.20;;;;;;5039100;28;43347;-70
2023/05/05 10:30:56;;;;;;;1.63;1.63;;;19.90;68.30;;;;;;5034000;28;43535;-70
2023/05/05 10:33:33;;;;;;;1.60;1.60;;;19.90;68.30;;;;;;5020223;28;46337;-69
2023/05/05 10:36:02;;;;;;;2.00;2.00;;;19.90;68.30;;;;;;5016602;28;45976;-72
2023/05/05 10:38:30;;;;;;;2.00;1.90;;;19.90;68.50;;;;;;5014897;28;43523;-69
2023/05/05 10:41:01;;;;;;;1.90;1.90;;;19.80;68.50;;;;;;5033087;28;43552;-71
2023/05/05 10:43:30;;;;;;;1.90;1.80;;;19.80;68.60;;;;;;5037174;28;43772;-69
2023/05/05 10:45:58;;;;;;;1.93;1.90;;;19.80;68.80;;;;;;5043060;28;43471;-70
2023/05/05 10:48:31;;;;;;;2.00;1.90;;;19.80;68.60;;;;;;5040307;28;43374;-70
2023/05/05 10:51:01;;;;;;;3.03;2.00;;;19.90;68.30;;;;;;5026120;28;43718;-70
2023/05/05 10:53:32;;;;;;;1.57;1.57;;;20.00;68.30;;;;;;5041627;28;43841;-70
2023/05/05 10:56:04;;;;;;;1.83;1.73;;;20.00;69.00;;;;;;5040697;28;43511;-69
2023/05/05 10:58:32;;;;;;;2.07;1.97;;;20.00;68.30;;;;;;5019413;28;43482;-69
2023/05/05 11:01:08;;;;;;;2.13;2.03;;;20.00;68.30;;;;;;5020707;28;43598;-69
2023/05/05 11:03:36;;;;;;;2.00;1.90;;;20.00;68.30;;;;;;5035816;28;43580;-69
2023/05/05 11:06:11;;;;;;;2.07;2.07;;;19.90;68.20;;;;;;5040458;28;43521;-68
2023/05/05 11:08:40;;;;;;;2.00;1.90;;;19.90;68.30;;;;;;5034176;28;43460;-71
2023/05/05 11:11:10;;;;;;;1.80;1.70;;;19.90;68.60;;;;;;5008805;28;43544;-70
2023/05/05 11:13:38;;;;;;;1.67;1.67;;;19.80;68.50;;;;;;5035724;28;43940;-70
2023/05/05 11:16:52;;;;;;;2.03;2.00;;;19.90;68.50;;;;;;5022728;28;44623;-70
2023/05/05 11:19:45;;;;;;;2.13;2.03;;;19.80;68.40;;;;;;5012603;28;43453;-70
2023/05/05 11:22:15;;;;;;;2.20;2.10;;;19.80;68.50;;;;;;5045950;28;43970;-69
2023/05/05 11:24:43;;;;;;;2.70;2.20;;;19.80;68.80;;;;;;5037050;28;43952;-68
2023/05/05 11:27:12;;;;;;;1.83;1.73;;;19.80;68.70;;;;;;5023781;28;44865;-68
2023/05/05 11:30:07;;;;;;;1.80;1.80;;;20.00;68.50;;;;;;5043373;28;43435;-69
2023/05/05 11:32:36;;;;;;;1.80;1.70;;;20.10;68.00;;;;;;5031233;28;43530;-69
2023/05/05 11:35:08;;;;;;;1.80;1.80;;;20.20;67.80;;;;;;5043318;28;43909;-69
2023/05/05 11:37:36;;;;;;;2.10;2.00;;;20.20;67.70;;;;;;5040960;28;44062;-69
2023/05/05 11:40:09;;;;;;;1.70;1.70;;;20.10;67.60;;;;;;5041159;28;43469;-69
2023/05/05 11:42:41;;;;;;;1.50;1.50;;;20.10;67.80;;;;;;5038415;28;43698;-69
2023/05/05 11:45:22;;;;;;;1.77;1.77;;;20.00;68.00;;;;;;5020065;28;45841;-69
2023/05/05 11:47:50;;;;;;;1.50;1.50;;;19.90;68.30;;;;;;5029129;28;43469;-69
2023/05/05 11:50:20;;;;;;;1.67;1.67;;;19.90;68.30;;;;;;5028619;28;43435;-69
2023/05/05 11:52:48;;;;;;;1.70;1.70;;;19.90;68.30;;;;;;5045426;28;43459;-69
2023/05/05 11:55:22;;;;;;;1.70;1.70;;;19.90;68.50;;;;;;5042500;28;43904;-69
2023/05/05 11:57:52;;;;;;;1.70;1.60;;;19.80;68.50;;;;;;5043217;28;43824;-68
2023/05/05 12:00:20;;;;;;;1.60;1.60;;;19.80;68.70;;;;;;5040982;28;43379;-69
2023/05/05 12:02:56;;;;;;;1.60;1.60;;;19.80;68.70;;;;;;5019546;28;43481;-69
2023/05/05 12:05:24;;;;;;;1.50;1.50;;;19.80;68.70;;;;;;5039148;28;43616;-69
2023/05/05 12:07:57;;;;;;;1.50;1.50;;;19.80;68.80;;;;;;5040702;28;43452;-69
2023/05/05 12:10:25;;;;;;;1.90;1.90;;;19.80;68.80;;;;;;5044477;28;43439;-69
2023/05/05 12:12:57;;;;;;;1.60;1.60;;;19.80;68.90;;;;;;5020515;28;43584;-69
2023/05/05 12:15:29;;;;;;;1.60;1.60;;;19.80;68.90;;;;;;5017126;28;44362;-69
2023/05/05 12:17:59;;;;;;;1.70;1.70;;;19.90;68.80;;;;;;5047207;28;43428;-69
2023/05/05 12:20:31;;;;;;;1.60;1.60;;;20.00;68.50;;;;;;5031664;28;43882;-70
2023/05/05 12:23:02;;;;;;;1.47;1.47;;;20.10;68.00;;;;;;5042902;28;43461;-69
2023/05/05 12:25:37;;;;;;;1.60;1.60;;;20.20;67.80;;;;;;5043944;28;43682;-69
2023/05/05 12:28:07;;;;;;;1.80;1.70;;;20.20;67.70;;;;;;5022835;28;44592;-69
2023/05/05 12:30:35;;;;;;;1.40;1.40;;;20.10;67.90;;;;;;5048324;28;43608;-69
2023/05/05 12:33:04;;;;;;;1.60;1.60;;;20.00;68.20;;;;;;5048567;28;43427;-69
2023/05/05 12:35:33;;;;;;;1.80;1.70;;;20.00;68.30;;;;;;5026236;28;46055;-69
2023/05/05 12:38:01;;;;;;;1.70;1.60;;;20.00;68.20;;;;;;5023980;28;44738;-68
2023/05/05 12:40:45;;;;;;;7.00;1.87;;;19.90;68.20;;;;;;5039509;28;43409;-69
2023/05/05 12:43:28;;;;;;;1.63;1.63;;;19.90;68.50;;;;;;5028907;28;43593;-69
2023/05/05 12:46:01;;;;;;;8.37;2.10;;;19.90;68.60;;;;;;5044197;28;43903;-68
2023/05/05 12:48:29;;;;;;;23.43;3.50;;;19.80;68.70;;;;;;5023455;28;43650;-69
2023/05/05 12:51:10;;;;;;;33.63;3.30;;;19.80;68.70;;;;;;5023241;28;43408;-69
2023/05/05 12:53:38;;;;;;;46.30;3.97;;;19.80;68.60;;;;;;5043799;28;43414;-69
2023/05/05 12:56:07;;;;;;;19.57;3.10;;;19.80;68.60;;;;;;5030701;28;46341;-70
2023/05/05 12:58:51;;;;;;;19.30;2.80;;;19.80;68.70;;;;;;5044106;28;43580;-69
2023/05/05 13:01:19;;;;;;;12.17;2.40;;;19.80;68.80;;;;;;5017248;28;43373;-70
2023/05/05 13:03:47;;;;;;;16.50;2.53;;;19.80;68.90;;;;;;5043874;28;43388;-70